sensor_id;sensor_type;location;lat;lon;timestamp;P1;durP1;ratioP1;P2;durP2;ratioP2
48550;SDS011;34397;51.176;6.738;2024-03-23T00:56:26;17.67;;;4.53;;
48550;SDS011;34397;51.176;6.738;2024-03-23T00:58:57;13.07;;;4.03;;
48550;SDS011;34397;51.176;6.738;2024-03-23T01:01:29;10.15;;;4.45;;
48550;SDS011;34397;51.176;6.738;2024-03-23T01:04:00;17.80;;;4.95;;
48550;SDS011;34397;51.176;6.738;2024-03-23T01:06:32;10.25;;;4.43;;
48550;SDS011;34397;51.176;6.738;2024-03-23T01:09:04;13.60;;;5.93;;
48550;SDS011;34397;51.176;6.738;2024-03-23T01:11:36;12.43;;;6.28;;
48550;SDS011;34397;51.176;6.738;2024-03-23T01:14:07;16.20;;;6.70;;
48550;SDS011;34397;51.176;6.738;2024-03-23T01:16:39;13.13;;;6.07;;
48550;SDS011;34397;51.176;6.738;2024-03-23T01:19:10;12.18;;;5.88;;
48550;SDS011;34397;51.176;6.738;2024-03-23T01:21:42;13.43;;;5.82;;
48550;SDS011;34397;51.176;6.738;2024-03-23T01:24:14;11.07;;;4.93;;
48550;SDS011;34397;51.176;6.738;2024-03-23T01:26:46;10.02;;;4.60;;
48550;SDS011;34397;51.176;6.738;2024-03-23T01:29:17;12.18;;;4.90;;
48550;SDS011;34397;51.176;6.738;2024-03-23T01:31:49;10.88;;;3.90;;
48550;SDS011;34397;51.176;6.738;2024-03-23T01:34:20;15.52;;;3.67;;
48550;SDS011;34397;51.176;6.738;2024-03-23T01:36:52;7.72;;;2.08;;
48550;SDS011;34397;51.176;6.738;2024-03-23T01:39:24;9.10;;;1.52;;
48550;SDS011;34397;51.176;6.738;2024-03-23T01:41:56;5.50;;;1.50;;
48550;SDS011;34397;51.176;6.738;2024-03-23T01:44:27;3.97;;;1.17;;
48550;SDS011;34397;51.176;6.738;2024-03-23T01:46:59;12.40;;;3.42;;
48550;SDS011;34397;51.176;6.738;2024-03-23T01:49:30;7.03;;;1.35;;
48550;SDS011;34397;51.176;6.738;2024-03-23T01:52:02;6.28;;;1.63;;
48550;SDS011;34397;51.176;6.738;2024-03-23T01:54:35;8.10;;;1.40;;
48550;SDS011;34397;51.176;6.738;2024-03-23T01:57:06;7.07;;;2.05;;
48550;SDS011;34397;51.176;6.738;2024-03-23T01:59:37;5.65;;;1.30;;
48550;SDS011;34397;51.176;6.738;2024-03-23T02:02:09;6.25;;;1.65;;
48550;SDS011;34397;51.176;6.738;2024-03-23T02:04:40;7.18;;;1.33;;
48550;SDS011;34397;51.176;6.738;2024-03-23T02:07:12;6.50;;;1.42;;
48550;SDS011;34397;51.176;6.738;2024-03-23T02:09:44;6.63;;;1.45;;
48550;SDS011;34397;51.176;6.738;2024-03-23T02:12:17;4.68;;;1.00;;
48550;SDS011;34397;51.176;6.738;2024-03-23T02:14:48;7.68;;;1.30;;
48550;SDS011;34397;51.176;6.738;2024-03-23T02:17:20;6.60;;;1.20;;
48550;SDS011;34397;51.176;6.738;2024-03-23T02:19:51;7.90;;;1.17;;
48550;SDS011;34397;51.176;6.738;2024-03-23T02:22:23;6.05;;;1.05;;
48550;SDS011;34397;51.176;6.738;2024-03-23T02:24:55;6.35;;;1.20;;
48550;SDS011;34397;51.176;6.738;2024-03-23T02:27:27;4.10;;;1.00;;
48550;SDS011;34397;51.176;6.738;2024-03-23T02:29:58;6.13;;;1.10;;
48550;SDS011;34397;51.176;6.738;2024-03-23T02:32:30;9.35;;;1.40;;
48550;SDS011;34397;51.176;6.738;2024-03-23T02:35:01;7.38;;;1.17;;
48550;SDS011;34397;51.176;6.738;2024-03-23T02:37:32;6.07;;;1.60;;
48550;SDS011;34397;51.176;6.738;2024-03-23T02:40:05;6.55;;;1.30;;
48550;SDS011;34397;51.176;6.738;2024-03-23T02:42:38;7.63;;;1.45;;
48550;SDS011;34397;51.176;6.738;2024-03-23T02:45:09;5.38;;;1.10;;
48550;SDS011;34397;51.176;6.738;2024-03-23T02:47:41;5.93;;;1.20;;
48550;SDS011;34397;51.176;6.738;2024-03-23T02:50:12;6.57;;;1.40;;
48550;SDS011;34397;51.176;6.738;2024-03-23T02:52:45;7.07;;;1.95;;
48550;SDS011;34397;51.176;6.738;2024-03-23T02:55:18;7.45;;;1.67;;
48550;SDS011;34397;51.176;6.738;2024-03-23T02:57:49;7.28;;;1.60;;
48550;SDS011;34397;51.176;6.738;2024-03-23T03:00:21;6.85;;;1.35;;
48550;SDS011;34397;51.176;6.738;2024-03-23T03:02:52;4.82;;;1.45;;
48550;SDS011;34397;51.176;6.738;2024-03-23T03:05:24;4.68;;;1.27;;
48550;SDS011;34397;51.176;6.738;2024-03-23T03:07:55;6.97;;;2.00;;
48550;SDS011;34397;51.176;6.738;2024-03-23T03:10:28;7.25;;;1.67;;
48550;SDS011;34397;51.176;6.738;2024-03-23T03:12:59;5.57;;;1.70;;
48550;SDS011;34397;51.176;6.738;2024-03-23T03:15:31;6.88;;;1.50;;
48550;SDS011;34397;51.176;6.738;2024-03-23T03:18:02;7.55;;;1.30;;
48550;SDS011;34397;51.176;6.738;2024-03-23T03:20:34;7.25;;;1.88;;
48550;SDS011;34397;51.176;6.738;2024-03-23T03:23:08;6.20;;;1.60;;
48550;SDS011;34397;51.176;6.738;2024-03-23T03:25:41;4.70;;;1.48;;
48550;SDS011;34397;51.176;6.738;2024-03-23T03:28:12;7.13;;;1.60;;
48550;SDS011;34397;51.176;6.738;2024-03-23T03:30:44;7.03;;;1.40;;
48550;SDS011;34397;51.176;6.738;2024-03-23T03:33:16;13.45;;;1.88;;
48550;SDS011;34397;51.176;6.738;2024-03-23T03:35:48;7.05;;;1.73;;
48550;SDS011;34397;51.176;6.738;2024-03-23T03:38:19;6.65;;;1.48;;
48550;SDS011;34397;51.176;6.738;2024-03-23T03:40:53;6.25;;;1.40;;
48550;SDS011;34397;51.176;6.738;2024-03-23T03:43:24;7.40;;;1.45;;
48550;SDS011;34397;51.176;6.738;2024-03-23T03:45:56;7.95;;;1.70;;
48550;SDS011;34397;51.176;6.738;2024-03-23T03:48:29;6.45;;;1.30;;
48550;SDS011;34397;51.176;6.738;2024-03-23T03:51:01;6.65;;;1.52;;
48550;SDS011;34397;51.176;6.738;2024-03-23T03:53:32;6.40;;;1.52;;
48550;SDS011;34397;51.176;6.738;2024-03-23T03:56:06;7.60;;;1.52;;
48550;SDS011;34397;51.176;6.738;2024-03-23T03:58:37;8.55;;;2.40;;
48550;SDS011;34397;51.176;6.738;2024-03-23T04:01:09;5.82;;;1.40;;
48550;SDS011;34397;51.176;6.738;2024-03-23T04:03:40;5.25;;;1.50;;
48550;SDS011;34397;51.176;6.738;2024-03-23T04:06:18;9.68;;;1.65;;
48550;SDS011;34397;51.176;6.738;2024-03-23T04:08:49;6.78;;;1.80;;
48550;SDS011;34397;51.176;6.738;2024-03-23T04:11:22;11.13;;;1.70;;
48550;SDS011;34397;51.176;6.738;2024-03-23T04:13:53;7.22;;;1.40;;
48550;SDS011;34397;51.176;6.738;2024-03-23T04:16:26;9.38;;;1.40;;
48550;SDS011;34397;51.176;6.738;2024-03-23T04:18:57;7.22;;;1.80;;
48550;SDS011;34397;51.176;6.738;2024-03-23T04:21:29;9.23;;;1.90;;
48550;SDS011;34397;51.176;6.738;2024-03-23T04:24:00;8.43;;;1.40;;
48550;SDS011;34397;51.176;6.738;2024-03-23T04:26:41;7.47;;;1.73;;
48550;SDS011;34397;51.176;6.738;2024-03-23T04:29:12;8.93;;;1.90;;
48550;SDS011;34397;51.176;6.738;2024-03-23T04:31:43;10.68;;;2.85;;
48550;SDS011;34397;51.176;6.738;2024-03-23T04:34:14;6.35;;;1.50;;
48550;SDS011;34397;51.176;6.738;2024-03-23T04:36:46;4.80;;;1.48;;
48550;SDS011;34397;51.176;6.738;2024-03-23T04:39:17;8.35;;;2.03;;
48550;SDS011;34397;51.176;6.738;2024-03-23T04:41:51;9.32;;;1.80;;
48550;SDS011;34397;51.176;6.738;2024-03-23T04:44:22;9.00;;;1.95;;
48550;SDS011;34397;51.176;6.738;2024-03-23T04:46:54;7.15;;;2.25;;
48550;SDS011;34397;51.176;6.738;2024-03-23T04:49:26;7.25;;;2.15;;
48550;SDS011;34397;51.176;6.738;2024-03-23T04:51:58;8.90;;;2.28;;
48550;SDS011;34397;51.176;6.738;2024-03-23T04:54:30;8.18;;;1.92;;
48550;SDS011;34397;51.176;6.738;2024-03-23T04:57:05;10.65;;;2.40;;
48550;SDS011;34397;51.176;6.738;2024-03-23T04:59:37;6.57;;;1.73;;
48550;SDS011;34397;51.176;6.738;2024-03-23T05:02:10;10.65;;;2.40;;
48550;SDS011;34397;51.176;6.738;2024-03-23T05:04:42;11.10;;;2.00;;
48550;SDS011;34397;51.176;6.738;2024-03-23T05:07:13;9.30;;;2.40;;
48550;SDS011;34397;51.176;6.738;2024-03-23T05:09:45;8.35;;;2.20;;
48550;SDS011;34397;51.176;6.738;2024-03-23T05:12:17;8.95;;;2.50;;
48550;SDS011;34397;51.176;6.738;2024-03-23T05:14:49;11.43;;;2.33;;
48550;SDS011;34397;51.176;6.738;2024-03-23T05:17:20;10.57;;;2.40;;
48550;SDS011;34397;51.176;6.738;2024-03-23T05:19:52;6.78;;;2.53;;
48550;SDS011;34397;51.176;6.738;2024-03-23T05:22:23;10.75;;;2.88;;
48550;SDS011;34397;51.176;6.738;2024-03-23T05:24:54;7.50;;;2.60;;
48550;SDS011;34397;51.176;6.738;2024-03-23T05:27:27;8.75;;;2.58;;
48550;SDS011;34397;51.176;6.738;2024-03-23T05:29:59;13.57;;;3.05;;
48550;SDS011;34397;51.176;6.738;2024-03-23T05:32:30;14.77;;;3.00;;
48550;SDS011;34397;51.176;6.738;2024-03-23T05:35:01;8.52;;;2.80;;
48550;SDS011;34397;51.176;6.738;2024-03-23T05:37:33;17.08;;;3.10;;
48550;SDS011;34397;51.176;6.738;2024-03-23T05:40:05;8.88;;;2.80;;
48550;SDS011;34397;51.176;6.738;2024-03-23T05:42:39;14.77;;;3.00;;
48550;SDS011;34397;51.176;6.738;2024-03-23T05:45:11;12.48;;;2.95;;
48550;SDS011;34397;51.176;6.738;2024-03-23T05:47:42;11.65;;;3.08;;
48550;SDS011;34397;51.176;6.738;2024-03-23T05:50:14;8.68;;;2.55;;
48550;SDS011;34397;51.176;6.738;2024-03-23T05:52:45;10.63;;;3.33;;
48550;SDS011;34397;51.176;6.738;2024-03-23T05:55:17;9.80;;;3.08;;
48550;SDS011;34397;51.176;6.738;2024-03-23T05:57:49;8.88;;;2.80;;
48550;SDS011;34397;51.176;6.738;2024-03-23T06:00:21;12.50;;;3.38;;
48550;SDS011;34397;51.176;6.738;2024-03-23T06:02:52;13.43;;;3.15;;
48550;SDS011;34397;51.176;6.738;2024-03-23T06:05:24;12.85;;;3.10;;
48550;SDS011;34397;51.176;6.738;2024-03-23T06:07:55;13.30;;;3.25;;
48550;SDS011;34397;51.176;6.738;2024-03-23T06:10:27;11.85;;;3.42;;
48550;SDS011;34397;51.176;6.738;2024-03-23T06:13:00;10.23;;;3.22;;
48550;SDS011;34397;51.176;6.738;2024-03-23T06:15:32;10.10;;;3.33;;
48550;SDS011;34397;51.176;6.738;2024-03-23T06:18:03;12.57;;;3.22;;
48550;SDS011;34397;51.176;6.738;2024-03-23T06:20:36;15.40;;;3.42;;
48550;SDS011;34397;51.176;6.738;2024-03-23T06:23:07;12.45;;;3.78;;
48550;SDS011;34397;51.176;6.738;2024-03-23T06:25:39;11.05;;;3.35;;
48550;SDS011;34397;51.176;6.738;2024-03-23T06:28:12;13.65;;;3.65;;
48550;SDS011;34397;51.176;6.738;2024-03-23T06:30:44;15.00;;;3.63;;
48550;SDS011;34397;51.176;6.738;2024-03-23T06:33:15;16.33;;;4.03;;
48550;SDS011;34397;51.176;6.738;2024-03-23T06:35:49;12.98;;;3.55;;
48550;SDS011;34397;51.176;6.738;2024-03-23T06:38:22;14.52;;;4.28;;
48550;SDS011;34397;51.176;6.738;2024-03-23T06:40:54;9.68;;;3.85;;
48550;SDS011;34397;51.176;6.738;2024-03-23T06:43:26;13.18;;;3.92;;
48550;SDS011;34397;51.176;6.738;2024-03-23T06:45:58;15.00;;;4.60;;
48550;SDS011;34397;51.176;6.738;2024-03-23T06:48:29;12.63;;;4.40;;
48550;SDS011;34397;51.176;6.738;2024-03-23T06:51:01;13.25;;;4.03;;
48550;SDS011;34397;51.176;6.738;2024-03-23T06:53:33;13.32;;;4.45;;
48550;SDS011;34397;51.176;6.738;2024-03-23T06:56:05;14.57;;;4.72;;
48550;SDS011;34397;51.176;6.738;2024-03-23T06:58:38;13.52;;;4.38;;
48550;SDS011;34397;51.176;6.738;2024-03-23T07:01:09;9.85;;;3.88;;
48550;SDS011;34397;51.176;6.738;2024-03-23T07:03:41;13.07;;;4.93;;
48550;SDS011;34397;51.176;6.738;2024-03-23T07:06:13;13.02;;;4.20;;
48550;SDS011;34397;51.176;6.738;2024-03-23T07:08:44;12.52;;;4.40;;
48550;SDS011;34397;51.176;6.738;2024-03-23T07:11:18;14.63;;;5.43;;
48550;SDS011;34397;51.176;6.738;2024-03-23T07:13:51;15.60;;;5.85;;
48550;SDS011;34397;51.176;6.738;2024-03-23T07:16:26;12.20;;;4.38;;
48550;SDS011;34397;51.176;6.738;2024-03-23T07:18:57;16.08;;;5.32;;
48550;SDS011;34397;51.176;6.738;2024-03-23T07:21:29;18.65;;;5.95;;
48550;SDS011;34397;51.176;6.738;2024-03-23T07:24:00;18.65;;;5.85;;
48550;SDS011;34397;51.176;6.738;2024-03-23T07:26:32;13.82;;;4.50;;
48550;SDS011;34397;51.176;6.738;2024-03-23T07:29:06;13.85;;;4.68;;
48550;SDS011;34397;51.176;6.738;2024-03-23T07:31:37;15.02;;;4.53;;
48550;SDS011;34397;51.176;6.738;2024-03-23T07:34:09;16.52;;;4.28;;
48550;SDS011;34397;51.176;6.738;2024-03-23T07:36:39;17.73;;;5.20;;
48550;SDS011;34397;51.176;6.738;2024-03-23T07:39:11;12.48;;;4.35;;
48550;SDS011;34397;51.176;6.738;2024-03-23T07:41:44;17.48;;;5.30;;
48550;SDS011;34397;51.176;6.738;2024-03-23T07:44:17;17.80;;;5.38;;
48550;SDS011;34397;51.176;6.738;2024-03-23T07:46:48;14.38;;;5.93;;
48550;SDS011;34397;51.176;6.738;2024-03-23T07:49:20;17.67;;;5.93;;
48550;SDS011;34397;51.176;6.738;2024-03-23T07:51:51;18.10;;;5.47;;
48550;SDS011;34397;51.176;6.738;2024-03-23T07:54:22;16.88;;;6.40;;
48550;SDS011;34397;51.176;6.738;2024-03-23T07:56:53;14.27;;;6.03;;
48550;SDS011;34397;51.176;6.738;2024-03-23T07:59:27;16.60;;;5.00;;
48550;SDS011;34397;51.176;6.738;2024-03-23T08:02:01;17.35;;;5.88;;
48550;SDS011;34397;51.176;6.738;2024-03-23T08:04:33;12.70;;;5.47;;
48550;SDS011;34397;51.176;6.738;2024-03-23T08:07:04;12.05;;;4.53;;
48550;SDS011;34397;51.176;6.738;2024-03-23T08:09:36;11.38;;;5.28;;
48550;SDS011;34397;51.176;6.738;2024-03-23T08:12:07;11.15;;;4.60;;
48550;SDS011;34397;51.176;6.738;2024-03-23T08:14:40;10.77;;;4.53;;
48550;SDS011;34397;51.176;6.738;2024-03-23T08:17:11;10.30;;;4.20;;
48550;SDS011;34397;51.176;6.738;2024-03-23T08:19:43;10.95;;;3.92;;
48550;SDS011;34397;51.176;6.738;2024-03-23T08:22:14;8.88;;;3.38;;
48550;SDS011;34397;51.176;6.738;2024-03-23T08:24:46;12.13;;;3.78;;
48550;SDS011;34397;51.176;6.738;2024-03-23T08:27:17;10.27;;;3.47;;
48550;SDS011;34397;51.176;6.738;2024-03-23T08:29:50;9.75;;;2.95;;
48550;SDS011;34397;51.176;6.738;2024-03-23T08:32:21;11.45;;;2.95;;
48550;SDS011;34397;51.176;6.738;2024-03-23T08:34:52;14.15;;;3.33;;
48550;SDS011;34397;51.176;6.738;2024-03-23T08:37:23;17.48;;;3.38;;
48550;SDS011;34397;51.176;6.738;2024-03-23T08:39:55;11.55;;;2.78;;
48550;SDS011;34397;51.176;6.738;2024-03-23T08:42:26;17.17;;;3.28;;
48550;SDS011;34397;51.176;6.738;2024-03-23T08:45:00;16.48;;;2.75;;
48550;SDS011;34397;51.176;6.738;2024-03-23T08:47:33;9.90;;;2.55;;
48550;SDS011;34397;51.176;6.738;2024-03-23T08:50:06;9.10;;;2.60;;
48550;SDS011;34397;51.176;6.738;2024-03-23T08:52:38;10.85;;;2.33;;
48550;SDS011;34397;51.176;6.738;2024-03-23T08:55:10;9.32;;;2.03;;
48550;SDS011;34397;51.176;6.738;2024-03-23T08:57:40;8.48;;;1.80;;
48550;SDS011;34397;51.176;6.738;2024-03-23T09:00:14;13.73;;;2.47;;
48550;SDS011;34397;51.176;6.738;2024-03-23T09:02:47;11.05;;;2.70;;
48550;SDS011;34397;51.176;6.738;2024-03-23T09:05:19;14.07;;;3.22;;
48550;SDS011;34397;51.176;6.738;2024-03-23T09:07:49;10.10;;;2.97;;
48550;SDS011;34397;51.176;6.738;2024-03-23T09:10:21;8.13;;;2.50;;
48550;SDS011;34397;51.176;6.738;2024-03-23T09:12:52;14.80;;;2.85;;
48550;SDS011;34397;51.176;6.738;2024-03-23T09:15:25;11.40;;;2.90;;
48550;SDS011;34397;51.176;6.738;2024-03-23T09:17:58;8.52;;;3.17;;
48550;SDS011;34397;51.176;6.738;2024-03-23T09:20:32;11.30;;;3.25;;
48550;SDS011;34397;51.176;6.738;2024-03-23T09:23:03;11.65;;;3.47;;
48550;SDS011;34397;51.176;6.738;2024-03-23T09:25:36;9.15;;;3.00;;
48550;SDS011;34397;51.176;6.738;2024-03-23T09:28:08;9.80;;;2.80;;
48550;SDS011;34397;51.176;6.738;2024-03-23T09:30:41;8.45;;;2.72;;
48550;SDS011;34397;51.176;6.738;2024-03-23T09:35:44;7.30;;;2.70;;
48550;SDS011;34397;51.176;6.738;2024-03-23T09:38:15;9.77;;;2.80;;
48550;SDS011;34397;51.176;6.738;2024-03-23T09:40:47;10.38;;;2.55;;
48550;SDS011;34397;51.176;6.738;2024-03-23T09:43:20;11.43;;;3.20;;
48550;SDS011;34397;51.176;6.738;2024-03-23T09:45:53;11.77;;;3.28;;
48550;SDS011;34397;51.176;6.738;2024-03-23T09:48:24;8.63;;;2.72;;
48550;SDS011;34397;51.176;6.738;2024-03-23T09:50:56;9.63;;;2.83;;
48550;SDS011;34397;51.176;6.738;2024-03-23T09:53:27;8.52;;;2.38;;
48550;SDS011;34397;51.176;6.738;2024-03-23T09:55:59;7.88;;;2.58;;
48550;SDS011;34397;51.176;6.738;2024-03-23T09:58:30;7.60;;;2.30;;
48550;SDS011;34397;51.176;6.738;2024-03-23T10:03:42;9.30;;;2.25;;
48550;SDS011;34397;51.176;6.738;2024-03-23T10:06:14;5.60;;;1.80;;
48550;SDS011;34397;51.176;6.738;2024-03-23T10:08:52;7.57;;;1.80;;
48550;SDS011;34397;51.176;6.738;2024-03-23T10:11:25;9.90;;;2.10;;
48550;SDS011;34397;51.176;6.738;2024-03-23T10:13:57;9.07;;;1.70;;
48550;SDS011;34397;51.176;6.738;2024-03-23T10:16:30;7.32;;;1.75;;
48550;SDS011;34397;51.176;6.738;2024-03-23T10:19:01;10.73;;;2.03;;
48550;SDS011;34397;51.176;6.738;2024-03-23T10:21:33;7.57;;;1.70;;
48550;SDS011;34397;51.176;6.738;2024-03-23T10:24:07;8.05;;;1.55;;
48550;SDS011;34397;51.176;6.738;2024-03-23T10:26:40;5.00;;;1.65;;
48550;SDS011;34397;51.176;6.738;2024-03-23T10:29:11;8.63;;;1.83;;
48550;SDS011;34397;51.176;6.738;2024-03-23T10:31:44;8.25;;;1.17;;
48550;SDS011;34397;51.176;6.738;2024-03-23T10:34:17;3.35;;;1.10;;
48550;SDS011;34397;51.176;6.738;2024-03-23T10:36:56;2.38;;;0.70;;
48550;SDS011;34397;51.176;6.738;2024-03-23T10:39:29;3.28;;;0.80;;
48550;SDS011;34397;51.176;6.738;2024-03-23T10:42:04;7.03;;;1.25;;
48550;SDS011;34397;51.176;6.738;2024-03-23T10:44:37;6.13;;;1.40;;
48550;SDS011;34397;51.176;6.738;2024-03-23T10:47:11;2.97;;;0.90;;
48550;SDS011;34397;51.176;6.738;2024-03-23T10:49:42;2.80;;;0.80;;
48550;SDS011;34397;51.176;6.738;2024-03-23T10:52:13;3.88;;;0.98;;
48550;SDS011;34397;51.176;6.738;2024-03-23T10:54:44;2.55;;;0.80;;
48550;SDS011;34397;51.176;6.738;2024-03-23T10:57:23;2.15;;;0.65;;
48550;SDS011;34397;51.176;6.738;2024-03-23T10:59:59;1.85;;;0.60;;
48550;SDS011;34397;51.176;6.738;2024-03-23T11:02:35;2.15;;;0.40;;
48550;SDS011;34397;51.176;6.738;2024-03-23T11:08:02;2.10;;;0.35;;
48550;SDS011;34397;51.176;6.738;2024-03-23T11:10:34;2.90;;;0.60;;
48550;SDS011;34397;51.176;6.738;2024-03-23T11:13:21;2.42;;;0.55;;
48550;SDS011;34397;51.176;6.738;2024-03-23T11:15:52;3.60;;;0.50;;
48550;SDS011;34397;51.176;6.738;2024-03-23T11:18:25;1.27;;;0.60;;
48550;SDS011;34397;51.176;6.738;2024-03-23T11:20:56;2.63;;;0.55;;
48550;SDS011;34397;51.176;6.738;2024-03-23T11:23:28;2.63;;;0.73;;
48550;SDS011;34397;51.176;6.738;2024-03-23T11:25:59;1.80;;;0.70;;
48550;SDS011;34397;51.176;6.738;2024-03-23T11:28:31;2.20;;;0.60;;
48550;SDS011;34397;51.176;6.738;2024-03-23T11:31:08;2.15;;;0.70;;
48550;SDS011;34397;51.176;6.738;2024-03-23T11:33:42;1.52;;;0.50;;
48550;SDS011;34397;51.176;6.738;2024-03-23T11:36:18;2.50;;;0.70;;
48550;SDS011;34397;51.176;6.738;2024-03-23T11:38:50;4.10;;;0.95;;
48550;SDS011;34397;51.176;6.738;2024-03-23T11:41:21;2.63;;;0.70;;
48550;SDS011;34397;51.176;6.738;2024-03-23T11:43:53;1.98;;;0.80;;
48550;SDS011;34397;51.176;6.738;2024-03-23T11:46:24;2.83;;;0.88;;
48550;SDS011;34397;51.176;6.738;2024-03-23T11:48:58;4.30;;;1.13;;
48550;SDS011;34397;51.176;6.738;2024-03-23T11:51:29;3.75;;;1.00;;
48550;SDS011;34397;51.176;6.738;2024-03-23T11:54:07;3.40;;;1.02;;
48550;SDS011;34397;51.176;6.738;2024-03-23T11:56:38;1.48;;;0.50;;
48550;SDS011;34397;51.176;6.738;2024-03-23T11:59:10;1.30;;;0.32;;
48550;SDS011;34397;51.176;6.738;2024-03-23T12:01:41;1.85;;;0.20;;
48550;SDS011;34397;51.176;6.738;2024-03-23T12:04:14;2.55;;;0.60;;
48550;SDS011;34397;51.176;6.738;2024-03-23T12:07:09;2.42;;;0.80;;
48550;SDS011;34397;51.176;6.738;2024-03-23T12:09:42;1.70;;;0.40;;
48550;SDS011;34397;51.176;6.738;2024-03-23T12:12:14;3.40;;;0.50;;
48550;SDS011;34397;51.176;6.738;2024-03-23T12:15:00;1.27;;;0.40;;
48550;SDS011;34397;51.176;6.738;2024-03-23T12:17:33;5.03;;;0.90;;
48550;SDS011;34397;51.176;6.738;2024-03-23T12:20:07;4.80;;;0.90;;
48550;SDS011;34397;51.176;6.738;2024-03-23T12:22:39;2.15;;;0.98;;
48550;SDS011;34397;51.176;6.738;2024-03-23T12:25:11;4.95;;;1.20;;
48550;SDS011;34397;51.176;6.738;2024-03-23T12:27:41;5.80;;;1.00;;
48550;SDS011;34397;51.176;6.738;2024-03-23T12:30:13;3.30;;;0.80;;
48550;SDS011;34397;51.176;6.738;2024-03-23T12:32:44;2.88;;;0.73;;
48550;SDS011;34397;51.176;6.738;2024-03-23T12:35:17;4.30;;;0.70;;
48550;SDS011;34397;51.176;6.738;2024-03-23T12:37:48;2.67;;;0.60;;
48550;SDS011;34397;51.176;6.738;2024-03-23T12:40:20;2.20;;;0.50;;
48550;SDS011;34397;51.176;6.738;2024-03-23T12:42:51;3.40;;;0.40;;
48550;SDS011;34397;51.176;6.738;2024-03-23T12:45:23;1.63;;;0.43;;
48550;SDS011;34397;51.176;6.738;2024-03-23T12:47:54;0.73;;;0.28;;
48550;SDS011;34397;51.176;6.738;2024-03-23T12:50:28;2.00;;;0.38;;
48550;SDS011;34397;51.176;6.738;2024-03-23T12:52:59;1.95;;;0.40;;
48550;SDS011;34397;51.176;6.738;2024-03-23T12:55:30;1.95;;;0.60;;
48550;SDS011;34397;51.176;6.738;2024-03-23T12:58:02;1.50;;;0.50;;
48550;SDS011;34397;51.176;6.738;2024-03-23T13:00:34;1.50;;;0.50;;
48550;SDS011;34397;51.176;6.738;2024-03-23T13:03:06;0.50;;;0.28;;
48550;SDS011;34397;51.176;6.738;2024-03-23T13:05:39;3.15;;;0.50;;
48550;SDS011;34397;51.176;6.738;2024-03-23T13:08:11;2.92;;;0.40;;
48550;SDS011;34397;51.176;6.738;2024-03-23T13:10:42;1.77;;;0.60;;
48550;SDS011;34397;51.176;6.738;2024-03-23T13:13:14;3.22;;;0.85;;
48550;SDS011;34397;51.176;6.738;2024-03-23T13:15:49;1.73;;;0.52;;
48550;SDS011;34397;51.176;6.738;2024-03-23T13:18:21;2.13;;;0.40;;
48550;SDS011;34397;51.176;6.738;2024-03-23T13:20:53;2.67;;;0.43;;
48550;SDS011;34397;51.176;6.738;2024-03-23T13:23:25;1.17;;;0.40;;
48550;SDS011;34397;51.176;6.738;2024-03-23T13:25:56;3.15;;;0.30;;
48550;SDS011;34397;51.176;6.738;2024-03-23T13:28:28;4.20;;;0.40;;
48550;SDS011;34397;51.176;6.738;2024-03-23T13:30:59;3.78;;;0.47;;
48550;SDS011;34397;51.176;6.738;2024-03-23T13:33:33;5.47;;;0.60;;
48550;SDS011;34397;51.176;6.738;2024-03-23T13:36:07;2.83;;;0.57;;
48550;SDS011;34397;51.176;6.738;2024-03-23T13:38:38;2.42;;;0.45;;
48550;SDS011;34397;51.176;6.738;2024-03-23T13:41:10;2.80;;;1.38;;
48550;SDS011;34397;51.176;6.738;2024-03-23T13:43:42;1.85;;;0.63;;
48550;SDS011;34397;51.176;6.738;2024-03-23T13:46:14;3.05;;;0.80;;
48550;SDS011;34397;51.176;6.738;2024-03-23T13:48:46;4.47;;;0.70;;
48550;SDS011;34397;51.176;6.738;2024-03-23T13:51:22;3.22;;;1.00;;
48550;SDS011;34397;51.176;6.738;2024-03-23T13:53:57;2.97;;;0.90;;
48550;SDS011;34397;51.176;6.738;2024-03-23T13:56:30;1.83;;;0.80;;
48550;SDS011;34397;51.176;6.738;2024-03-23T13:59:02;1.73;;;0.60;;
48550;SDS011;34397;51.176;6.738;2024-03-23T14:01:33;2.47;;;0.70;;
48550;SDS011;34397;51.176;6.738;2024-03-23T14:04:05;3.28;;;1.02;;
48550;SDS011;34397;51.176;6.738;2024-03-23T14:06:38;1.58;;;0.52;;
48550;SDS011;34397;51.176;6.738;2024-03-23T14:09:09;3.65;;;0.90;;
48550;SDS011;34397;51.176;6.738;2024-03-23T14:11:41;4.07;;;1.25;;
48550;SDS011;34397;51.176;6.738;2024-03-23T14:14:13;2.20;;;0.80;;
48550;SDS011;34397;51.176;6.738;2024-03-23T14:16:46;2.88;;;0.60;;
48550;SDS011;34397;51.176;6.738;2024-03-23T14:19:20;1.77;;;0.40;;
48550;SDS011;34397;51.176;6.738;2024-03-23T14:21:52;3.55;;;0.70;;
48550;SDS011;34397;51.176;6.738;2024-03-23T14:24:24;5.32;;;1.00;;
48550;SDS011;34397;51.176;6.738;2024-03-23T14:26:54;3.25;;;1.13;;
48550;SDS011;34397;51.176;6.738;2024-03-23T14:29:26;3.30;;;0.90;;
48550;SDS011;34397;51.176;6.738;2024-03-23T14:31:57;1.33;;;0.52;;
48550;SDS011;34397;51.176;6.738;2024-03-23T14:34:29;2.22;;;0.55;;
48550;SDS011;34397;51.176;6.738;2024-03-23T14:37:03;1.38;;;0.43;;
48550;SDS011;34397;51.176;6.738;2024-03-23T14:39:35;1.10;;;0.45;;
48550;SDS011;34397;51.176;6.738;2024-03-23T14:42:09;1.92;;;0.55;;
48550;SDS011;34397;51.176;6.738;2024-03-23T14:44:39;1.60;;;0.47;;
48550;SDS011;34397;51.176;6.738;2024-03-23T14:47:12;4.60;;;0.50;;
48550;SDS011;34397;51.176;6.738;2024-03-23T14:49:43;2.38;;;0.50;;
48550;SDS011;34397;51.176;6.738;2024-03-23T14:52:18;2.22;;;0.60;;
48550;SDS011;34397;51.176;6.738;2024-03-23T14:54:49;2.35;;;0.50;;
48550;SDS011;34397;51.176;6.738;2024-03-23T14:57:21;4.53;;;1.02;;
48550;SDS011;34397;51.176;6.738;2024-03-23T14:59:52;1.80;;;0.60;;
48550;SDS011;34397;51.176;6.738;2024-03-23T15:02:24;1.00;;;0.47;;
48550;SDS011;34397;51.176;6.738;2024-03-23T15:04:57;1.77;;;0.50;;
48550;SDS011;34397;51.176;6.738;2024-03-23T15:07:31;2.13;;;0.68;;
48550;SDS011;34397;51.176;6.738;2024-03-23T15:10:02;4.75;;;0.80;;
48550;SDS011;34397;51.176;6.738;2024-03-23T15:12:34;1.70;;;0.50;;
48550;SDS011;34397;51.176;6.738;2024-03-23T15:15:06;6.40;;;0.90;;
48550;SDS011;34397;51.176;6.738;2024-03-23T15:17:38;1.20;;;0.38;;
48550;SDS011;34397;51.176;6.738;2024-03-23T15:20:11;3.75;;;0.68;;
48550;SDS011;34397;51.176;6.738;2024-03-23T15:22:44;2.78;;;1.00;;
48550;SDS011;34397;51.176;6.738;2024-03-23T15:25:15;1.77;;;0.50;;
48550;SDS011;34397;51.176;6.738;2024-03-23T15:27:47;1.85;;;0.60;;
48550;SDS011;34397;51.176;6.738;2024-03-23T15:30:18;2.47;;;0.70;;
48550;SDS011;34397;51.176;6.738;2024-03-23T15:32:50;2.67;;;0.80;;
48550;SDS011;34397;51.176;6.738;2024-03-23T15:35:22;5.53;;;0.70;;
48550;SDS011;34397;51.176;6.738;2024-03-23T15:37:55;1.10;;;0.60;;
48550;SDS011;34397;51.176;6.738;2024-03-23T15:40:26;2.97;;;0.70;;
48550;SDS011;34397;51.176;6.738;2024-03-23T15:42:58;2.33;;;0.80;;
48550;SDS011;34397;51.176;6.738;2024-03-23T15:45:29;1.35;;;0.65;;
48550;SDS011;34397;51.176;6.738;2024-03-23T15:48:01;1.40;;;0.50;;
48550;SDS011;34397;51.176;6.738;2024-03-23T15:50:32;1.80;;;0.68;;
48550;SDS011;34397;51.176;6.738;2024-03-23T15:53:05;2.40;;;0.73;;
48550;SDS011;34397;51.176;6.738;2024-03-23T15:55:37;1.27;;;0.45;;
48550;SDS011;34397;51.176;6.738;2024-03-23T15:58:08;2.17;;;0.70;;
48550;SDS011;34397;51.176;6.738;2024-03-23T16:00:39;3.97;;;0.80;;
48550;SDS011;34397;51.176;6.738;2024-03-23T16:03:11;3.03;;;0.70;;
48550;SDS011;34397;51.176;6.738;2024-03-23T16:05:42;7.47;;;0.98;;
48550;SDS011;34397;51.176;6.738;2024-03-23T16:08:23;1.75;;;0.65;;
48550;SDS011;34397;51.176;6.738;2024-03-23T16:10:59;1.90;;;0.60;;
48550;SDS011;34397;51.176;6.738;2024-03-23T16:13:31;2.95;;;0.90;;
48550;SDS011;34397;51.176;6.738;2024-03-23T16:16:04;2.22;;;0.47;;